createdAt,value
2022-08-01T00:00:56.979Z,75.18
2022-08-01T00:03:24.385Z,75.77
2022-08-01T00:05:51.794Z,75.68
2022-08-01T00:08:19.333Z,75.55
2022-08-01T00:10:46.733Z,75.24
2022-08-01T00:13:14.249Z,75.60
2022-08-01T00:15:41.674Z,76.45
2022-08-01T00:18:21.122Z,75.18
2022-08-01T00:20:48.596Z,76.13
2022-08-01T00:23:15.964Z,76.04
2022-08-01T00:25:43.495Z,76.79
2022-08-01T00:28:11.129Z,76.33
2022-08-01T00:30:38.536Z,76.13
2022-08-01T00:33:06.449Z,75.24
2022-08-01T00:35:34.043Z,76.88
2022-08-01T00:38:01.482Z,77.68
2022-08-01T00:40:28.961Z,77.00
2022-08-01T00:42:56.335Z,77.86
2022-08-01T00:45:23.844Z,76.91
2022-08-01T00:47:55.332Z,76.63
2022-08-01T00:50:23.187Z,76.61
2022-08-01T00:52:52.866Z,77.03
2022-08-01T00:55:21.544Z,77.96
2022-08-01T00:58:05.408Z,78.05
2022-08-01T01:00:52.093Z,77.23
2022-08-01T01:03:23.860Z,77.39
2022-08-01T01:06:39.607Z,82.40
2022-08-01T01:09:18.420Z,81.00
2022-08-01T01:11:55.851Z,78.77
2022-08-01T01:14:34.969Z,81.47
2022-08-01T01:17:06.042Z,79.45
2022-08-01T01:19:37.883Z,79.51
2022-08-01T01:22:45.167Z,80.76
2022-08-01T01:25:42.088Z,79.32
2022-08-01T01:28:27.711Z,75.56
2022-08-01T01:30:58.284Z,77.50
2022-08-01T01:33:33.073Z,77.65
2022-08-01T01:36:04.833Z,76.88
2022-08-01T01:38:43.311Z,77.21
2022-08-01T01:41:13.267Z,78.01
2022-08-01T01:43:41.551Z,76.37
2022-08-01T01:46:12.274Z,77.66
2022-08-01T01:48:41.304Z,77.67
2022-08-01T01:51:10.221Z,77.27
2022-08-01T01:53:38.213Z,77.12
2022-08-01T01:56:06.018Z,76.41
2022-08-01T01:58:35.684Z,76.55
2022-08-01T02:01:04.704Z,75.74
2022-08-01T02:03:44.663Z,74.46
2022-08-01T02:06:15.985Z,77.66
2022-08-01T02:08:45.151Z,76.04
2022-08-01T02:11:22.621Z,74.46
2022-08-01T02:14:00.432Z,76.47
2022-08-01T02:16:33.075Z,75.48
2022-08-01T02:19:01.124Z,73.53
2022-08-01T02:21:33.943Z,76.00
2022-08-01T02:24:36.437Z,74.80
2022-08-01T02:27:10.500Z,74.99
2022-08-01T02:30:05.919Z,75.12
2022-08-01T02:32:40.285Z,74.30
2022-08-01T02:35:12.945Z,72.45
2022-08-01T02:37:45.137Z,70.63
2022-08-01T02:40:15.751Z,70.25
2022-08-01T02:42:51.810Z,72.33
2022-08-01T02:45:22.019Z,70.01
2022-08-01T02:47:53.105Z,70.15
2022-08-01T02:50:21.501Z,68.49
2022-08-01T02:52:52.074Z,69.62
2022-08-01T02:55:21.821Z,69.60
2022-08-01T02:57:52.458Z,68.97
2022-08-01T03:00:26.226Z,68.00
2022-08-01T03:02:56.237Z,67.51
2022-08-01T03:05:26.540Z,68.79
2022-08-01T03:07:56.604Z,68.72
2022-08-01T03:10:32.120Z,68.19
2022-08-01T03:13:03.530Z,68.46
2022-08-01T03:15:34.227Z,68.66
2022-08-01T03:18:04.146Z,67.63
2022-08-01T03:20:34.198Z,67.35
2022-08-01T03:23:04.794Z,67.69
2022-08-01T03:25:34.228Z,66.59
2022-08-01T03:28:04.965Z,67.17
2022-08-01T03:30:34.646Z,67.06
2022-08-01T03:33:02.097Z,66.52
2022-08-01T03:35:41.275Z,67.74
2022-08-01T03:38:16.152Z,66.31
2022-08-01T03:41:09.628Z,67.09
2022-08-01T03:43:44.791Z,67.64
2022-08-01T03:46:18.852Z,66.84
2022-08-01T03:48:52.412Z,67.67
2022-08-01T03:51:22.622Z,65.18
2022-08-01T03:53:52.207Z,65.61
2022-08-01T03:56:21.213Z,66.09
2022-08-01T03:58:50.013Z,66.09
2022-08-01T04:01:19.202Z,64.67
2022-08-01T04:03:47.350Z,64.57
2022-08-01T04:06:15.245Z,64.14
2022-08-01T04:08:42.907Z,64.30
2022-08-01T04:11:11.250Z,65.03
2022-08-01T04:13:38.807Z,64.93
2022-08-01T04:16:06.425Z,64.73
2022-08-01T04:18:34.007Z,64.02
2022-08-01T04:21:01.459Z,63.95
2022-08-01T04:23:32.815Z,63.89
2022-08-01T04:26:05.371Z,63.38
2022-08-01T04:28:36.288Z,63.29
2022-08-01T04:31:06.690Z,62.15
2022-08-01T04:33:37.859Z,62.95
2022-08-01T04:36:07.791Z,61.70
2022-08-01T04:38:37.985Z,62.79
2022-08-01T04:41:08.668Z,62.05
2022-08-01T04:43:40.467Z,63.48
2022-08-01T04:46:09.119Z,62.02
2022-08-01T04:48:39.776Z,62.45
2022-08-01T04:51:14.564Z,62.80
2022-08-01T04:53:43.738Z,60.62
2022-08-01T04:56:14.403Z,59.79
2022-08-01T04:58:43.326Z,60.16
2022-08-01T05:01:12.089Z,58.97
2022-08-01T05:03:39.984Z,58.61
2022-08-01T05:06:07.777Z,58.22
2022-08-01T05:08:35.591Z,57.47
2022-08-01T05:11:03.137Z,57.64
2022-08-01T05:13:30.589Z,58.28
2022-08-01T05:15:58.007Z,58.27
2022-08-01T05:18:27.856Z,57.20
2022-08-01T05:20:56.329Z,56.65
2022-08-01T05:23:41.880Z,56.17
2022-08-01T05:26:13.880Z,55.74
2022-08-01T05:28:43.312Z,55.45
2022-08-01T05:31:10.834Z,54.87
2022-08-01T05:33:38.284Z,55.07
2022-08-01T05:36:06.180Z,55.11
2022-08-01T05:38:33.667Z,54.61
2022-08-01T05:41:01.115Z,54.69
2022-08-01T05:43:29.265Z,54.43
2022-08-01T05:45:57.196Z,53.71
2022-08-01T05:48:24.659Z,52.50
2022-08-01T05:50:57.976Z,51.86
2022-08-01T05:53:26.128Z,51.94
2022-08-01T05:55:53.532Z,51.74
2022-08-01T05:58:20.931Z,51.47
2022-08-01T06:00:48.412Z,50.90
2022-08-01T06:03:16.273Z,49.42
2022-08-01T06:05:43.761Z,48.54
2022-08-01T06:08:11.247Z,47.83
2022-08-01T06:10:38.800Z,47.36
2022-08-01T06:13:06.335Z,47.23
2022-08-01T06:15:34.354Z,47.06
2022-08-01T06:18:02.147Z,46.92
2022-08-01T06:20:29.596Z,46.74
2022-08-01T06:22:57.126Z,46.54
2022-08-01T06:25:27.953Z,46.45
2022-08-01T06:27:55.363Z,46.28
2022-08-01T06:30:22.870Z,46.41
2022-08-01T06:32:50.294Z,45.54
2022-08-01T06:35:18.133Z,44.53
2022-08-01T06:37:48.276Z,44.09
2022-08-01T06:40:17.385Z,44.21
2022-08-01T06:42:46.957Z,44.52
2022-08-01T06:45:15.383Z,44.66
2022-08-01T06:47:44.833Z,44.65
2022-08-01T06:50:16.315Z,45.12
2022-08-01T06:52:43.866Z,45.41
2022-08-01T06:55:11.642Z,45.39
2022-08-01T06:57:50.863Z,46.50
2022-08-01T07:00:22.203Z,45.92
2022-08-01T07:02:54.797Z,46.75
2022-08-01T07:05:22.953Z,46.13
2022-08-01T07:07:51.425Z,46.38
2022-08-01T07:10:19.083Z,47.16
2022-08-01T07:12:46.757Z,47.50
2022-08-01T07:15:14.421Z,47.66
2022-08-01T07:17:43.710Z,48.10
2022-08-01T07:20:16.082Z,48.18
2022-08-01T07:22:44.043Z,47.99
2022-08-01T07:25:15.664Z,48.52
2022-08-01T07:27:43.080Z,48.53
2022-08-01T07:30:10.870Z,48.73
2022-08-01T07:32:38.326Z,47.99
2022-08-01T07:35:06.152Z,48.94
2022-08-01T07:37:48.214Z,48.87
2022-08-01T07:40:18.909Z,48.30
2022-08-01T07:42:47.077Z,48.25
2022-08-01T07:45:16.360Z,48.79
2022-08-01T07:47:43.940Z,48.04
2022-08-01T07:50:13.815Z,48.18
2022-08-01T07:52:41.339Z,48.11
2022-08-01T07:55:09.571Z,47.63
2022-08-01T07:57:38.630Z,47.37
2022-08-01T08:00:09.384Z,47.55
2022-08-01T08:02:36.981Z,47.59
2022-08-01T08:05:05.132Z,47.54
2022-08-01T08:07:33.073Z,47.97
2022-08-01T08:10:00.688Z,47.80
2022-08-01T08:12:30.432Z,47.77
2022-08-01T08:15:02.462Z,47.73
2022-08-01T08:17:35.573Z,47.81
2022-08-01T08:20:09.204Z,48.31
2022-08-01T08:22:37.145Z,47.25
2022-08-01T08:25:05.028Z,47.52
2022-08-01T08:27:37.507Z,48.27
2022-08-01T08:30:08.942Z,48.08
2022-08-01T08:32:37.469Z,47.88
2022-08-01T08:35:06.532Z,48.03
2022-08-01T08:37:37.966Z,48.36
2022-08-01T08:40:07.925Z,48.87
2022-08-01T08:42:37.344Z,47.98
2022-08-01T08:45:06.706Z,49.67
2022-08-01T08:47:45.171Z,50.13
2022-08-01T08:50:12.909Z,50.61
2022-08-01T08:52:41.693Z,51.59
2022-08-01T08:55:10.897Z,51.97
2022-08-01T08:57:44.281Z,52.70
2022-08-01T09:00:13.304Z,51.89
2022-08-01T09:02:45.517Z,53.76
2022-08-01T09:05:18.885Z,52.72
2022-08-01T09:07:47.153Z,53.38
2022-08-01T09:10:14.741Z,52.79
2022-08-01T09:13:13.100Z,52.91
2022-08-01T09:16:00.222Z,53.02
2022-08-01T09:18:41.802Z,52.01
2022-08-01T09:21:18.925Z,53.88
2022-08-01T09:23:53.293Z,52.90
2022-08-01T09:26:36.589Z,52.21
2022-08-01T09:29:08.367Z,52.42
2022-08-01T09:31:47.464Z,52.96
2022-08-01T09:34:19.982Z,51.93
2022-08-01T09:36:57.232Z,52.12
2022-08-01T09:39:29.789Z,52.26
2022-08-01T09:42:00.300Z,51.85
2022-08-01T09:44:42.893Z,52.64
2022-08-01T09:47:15.869Z,52.64
2022-08-01T09:49:50.998Z,52.12
2022-08-01T09:52:25.858Z,52.56
2022-08-01T09:55:01.864Z,52.95
2022-08-01T09:57:31.159Z,51.68
2022-08-01T10:00:02.069Z,52.41
2022-08-01T10:02:41.887Z,52.11
2022-08-01T10:05:20.837Z,51.75
2022-08-01T10:08:00.595Z,51.77
2022-08-01T10:10:29.090Z,51.86
2022-08-01T10:13:00.592Z,52.18
2022-08-01T10:15:37.283Z,52.02
2022-08-01T10:18:16.204Z,51.12
2022-08-01T10:20:44.657Z,51.33
2022-08-01T10:23:13.429Z,50.87
2022-08-01T10:25:46.994Z,50.67
2022-08-01T10:28:23.888Z,49.71
2022-08-01T10:30:53.160Z,49.27
2022-08-01T10:33:50.734Z,49.10
2022-08-01T10:36:13.463Z,48.31
2022-08-01T10:38:41.403Z,48.34
2022-08-01T10:41:09.910Z,47.84
2022-08-01T10:43:37.435Z,47.40
2022-08-01T10:46:06.528Z,47.10
2022-08-01T10:49:02.581Z,46.93
2022-08-01T10:51:52.989Z,46.58
2022-08-01T10:54:26.161Z,45.54
2022-08-01T10:56:54.409Z,44.68
2022-08-01T10:59:49.154Z,45.90
2022-08-01T11:02:32.072Z,44.97
2022-08-01T11:05:05.939Z,44.91
2022-08-01T11:07:39.297Z,43.94
2022-08-01T11:10:36.353Z,44.24
2022-08-01T11:13:06.953Z,44.84
2022-08-01T11:15:34.775Z,44.92
2022-08-01T11:18:31.067Z,44.59
2022-08-01T11:21:57.931Z,45.20
2022-08-01T11:23:55.337Z,44.71
2022-08-01T11:26:28.850Z,44.69
2022-08-01T11:29:21.720Z,44.82
2022-08-01T11:31:50.592Z,45.54
2022-08-01T11:34:18.032Z,46.06
2022-08-01T11:37:01.712Z,46.13
2022-08-01T11:39:33.355Z,46.42
2022-08-01T11:42:19.855Z,46.21
2022-08-01T11:44:52.528Z,46.40
2022-08-01T11:47:40.167Z,45.67
2022-08-01T11:50:07.997Z,47.19
2022-08-01T11:52:37.427Z,47.27
2022-08-01T11:55:04.832Z,47.13
2022-08-01T11:57:39.607Z,46.44
2022-08-01T12:00:19.074Z,47.15
2022-08-01T12:02:48.083Z,47.18
2022-08-01T12:05:19.467Z,47.64
2022-08-01T12:07:52.090Z,48.26
2022-08-01T12:10:22.177Z,47.32
2022-08-01T12:12:55.588Z,48.23
2022-08-01T12:15:25.379Z,47.73
2022-08-01T12:17:59.829Z,47.10
2022-08-01T12:20:34.098Z,48.57
2022-08-01T12:23:07.022Z,48.57
2022-08-01T12:25:35.737Z,47.80
2022-08-01T12:28:08.932Z,48.58
2022-08-01T12:30:40.190Z,47.97
2022-08-01T12:33:11.403Z,50.34
2022-08-01T12:35:39.996Z,50.14
2022-08-01T12:38:16.485Z,50.16
2022-08-01T12:40:46.123Z,50.74
2022-08-01T12:43:27.335Z,51.82
2022-08-01T12:45:59.775Z,51.48
2022-08-01T12:48:28.892Z,51.78
2022-08-01T12:50:59.395Z,51.90
2022-08-01T12:53:40.381Z,51.43
2022-08-01T12:56:11.827Z,51.57
2022-08-01T12:58:39.871Z,51.70
2022-08-01T13:01:10.100Z,52.83
2022-08-01T13:03:38.324Z,51.35
2022-08-01T13:06:16.653Z,53.38
2022-08-01T13:08:45.785Z,52.31
2022-08-01T13:11:16.115Z,52.43
2022-08-01T13:13:45.401Z,52.62
2022-08-01T13:16:18.200Z,52.79
2022-08-01T13:19:00.698Z,53.15
2022-08-01T13:21:34.684Z,53.59
2022-08-01T13:24:25.814Z,55.61
2022-08-01T13:27:01.462Z,56.36
2022-08-01T13:29:35.157Z,55.12
2022-08-01T13:32:29.281Z,54.55
2022-08-01T13:35:06.136Z,57.20
2022-08-01T13:37:33.976Z,55.17
2022-08-01T13:40:01.554Z,55.28
2022-08-01T13:42:30.760Z,55.22
2022-08-01T13:44:58.205Z,56.30
2022-08-01T13:47:31.607Z,56.70
2022-08-01T13:50:03.561Z,56.54
2022-08-01T13:52:32.052Z,56.46
2022-08-01T13:55:02.389Z,56.70
2022-08-01T13:57:36.635Z,56.89
2022-08-01T14:00:08.867Z,58.12
2022-08-01T14:02:42.286Z,56.12
2022-08-01T14:05:12.753Z,56.96
2022-08-01T14:07:41.375Z,56.92
2022-08-01T14:10:18.804Z,56.79
2022-08-01T14:12:51.297Z,58.59
2022-08-01T14:15:37.392Z,57.57
2022-08-01T14:18:10.072Z,57.68
2022-08-01T14:20:41.140Z,58.40
2022-08-01T14:23:09.631Z,57.59
2022-08-01T14:26:03.570Z,59.42
2022-08-01T14:28:31.338Z,58.40
2022-08-01T14:30:59.160Z,58.36
2022-08-01T14:33:27.594Z,58.91
2022-08-01T14:36:06.705Z,58.09
2022-08-01T14:38:42.851Z,58.15
2022-08-01T14:41:15.085Z,58.23
2022-08-01T14:43:42.674Z,58.86
2022-08-01T14:46:11.228Z,58.63
2022-08-01T14:48:38.793Z,58.60
2022-08-01T14:51:08.351Z,59.17
2022-08-01T14:53:37.693Z,58.78
2022-08-01T14:56:05.892Z,59.36
2022-08-01T14:58:34.146Z,60.04
2022-08-01T15:01:02.679Z,59.69
2022-08-01T15:03:30.288Z,59.14
2022-08-01T15:05:57.695Z,59.79
2022-08-01T15:08:25.258Z,60.14
2022-08-01T15:10:52.881Z,60.19
2022-08-01T15:13:21.131Z,60.96
2022-08-01T15:15:49.505Z,60.37
2022-08-01T15:18:17.535Z,60.31
2022-08-01T15:20:45.182Z,61.19
2022-08-01T15:23:12.694Z,61.08
2022-08-01T15:25:41.810Z,61.14
2022-08-01T15:28:13.209Z,63.06
2022-08-01T15:30:41.238Z,61.32
2022-08-01T15:33:09.358Z,61.45
2022-08-01T15:35:36.880Z,61.28
2022-08-01T15:38:04.419Z,61.45
2022-08-01T15:40:35.823Z,61.90
2022-08-01T15:43:03.859Z,61.57
2022-08-01T15:45:48.128Z,61.89
2022-08-01T15:48:19.347Z,63.63
2022-08-01T15:50:46.826Z,62.07
2022-08-01T15:53:14.642Z,61.96
2022-08-01T15:55:48.934Z,61.68
2022-08-01T15:58:20.604Z,61.96
2022-08-01T16:00:48.107Z,62.03
2022-08-01T16:03:15.514Z,61.97
2022-08-01T16:05:44.619Z,61.71
2022-08-01T16:08:13.909Z,62.79
2022-08-01T16:10:41.998Z,62.95
2022-08-01T16:13:10.203Z,63.49
2022-08-01T16:15:40.752Z,63.19
2022-08-01T16:18:10.989Z,63.81
2022-08-01T16:20:45.129Z,64.57
2022-08-01T16:23:15.574Z,63.97
2022-08-01T16:25:45.019Z,63.35
2022-08-01T16:28:14.557Z,63.54
2022-08-01T16:30:55.439Z,63.31
2022-08-01T16:33:53.164Z,63.01
2022-08-01T16:36:17.791Z,62.81
2022-08-01T16:38:45.902Z,62.96
2022-08-01T16:41:19.047Z,62.91
2022-08-01T16:43:53.745Z,62.78
2022-08-01T16:46:24.210Z,63.26
2022-08-01T16:48:51.839Z,62.81
2022-08-01T16:51:20.198Z,62.20
2022-08-01T16:53:47.671Z,62.23
2022-08-01T16:56:15.207Z,62.61
2022-08-01T16:58:42.843Z,63.00
2022-08-01T17:02:03.338Z,62.77
2022-08-01T17:04:01.173Z,62.85
2022-08-01T17:06:30.423Z,62.96
2022-08-01T17:08:58.313Z,62.83
2022-08-01T17:11:26.011Z,63.87
2022-08-01T17:13:53.849Z,63.58
2022-08-01T17:16:21.580Z,63.73
2022-08-01T17:18:49.319Z,64.28
2022-08-01T17:21:16.831Z,64.54
2022-08-01T17:23:44.516Z,64.12
2022-08-01T17:26:12.070Z,64.21
2022-08-01T17:28:40.191Z,64.71
2022-08-01T17:31:10.346Z,64.41
2022-08-01T17:33:44.602Z,64.93
2022-08-01T17:36:14.845Z,65.16
2022-08-01T17:38:42.396Z,65.38
2022-08-01T17:41:10.168Z,65.58
2022-08-01T17:43:37.554Z,65.18
2022-08-01T17:46:05.164Z,65.02
2022-08-01T17:48:32.574Z,65.28
2022-08-01T17:51:00.093Z,64.79
2022-08-01T17:53:27.660Z,64.84
2022-08-01T17:55:57.895Z,64.16
2022-08-01T17:58:50.199Z,64.13
2022-08-01T18:01:19.060Z,67.13
2022-08-01T18:03:46.994Z,65.44
2022-08-01T18:06:19.034Z,65.76
2022-08-01T18:08:48.418Z,65.28
2022-08-01T18:11:17.536Z,64.97
2022-08-01T18:13:45.321Z,64.81
2022-08-01T18:16:13.653Z,65.64
2022-08-01T18:18:42.460Z,65.47
2022-08-01T18:21:11.802Z,66.60
2022-08-01T18:23:39.387Z,65.89
2022-08-01T18:26:09.892Z,65.98
2022-08-01T18:28:42.112Z,64.99
2022-08-01T18:31:16.975Z,65.76
2022-08-01T18:33:44.705Z,65.51
2022-08-01T18:36:21.111Z,66.11
2022-08-01T18:39:01.864Z,66.65
2022-08-01T18:41:33.038Z,66.41
2022-08-01T18:44:05.388Z,65.86
2022-08-01T18:46:39.995Z,68.06
2022-08-01T18:49:10.637Z,67.58
2022-08-01T18:51:43.910Z,65.60
2022-08-01T18:54:12.478Z,64.47
2022-08-01T18:56:39.888Z,64.27
2022-08-01T18:59:07.411Z,63.76
2022-08-01T19:01:35.089Z,63.52
2022-08-01T19:04:02.849Z,62.19
2022-08-01T19:06:30.340Z,61.90
2022-08-01T19:09:02.026Z,61.96
2022-08-01T19:11:34.762Z,62.95
2022-08-01T19:14:03.355Z,60.64
2022-08-01T19:16:31.539Z,60.85
2022-08-01T19:18:59.124Z,60.61
2022-08-01T19:21:26.631Z,60.55
2022-08-01T19:24:12.416Z,60.19
2022-08-01T19:26:40.926Z,60.23
2022-08-01T19:29:16.476Z,61.10
2022-08-01T19:31:48.830Z,60.19
2022-08-01T19:34:19.674Z,60.19
2022-08-01T19:36:54.589Z,60.11
2022-08-01T19:39:26.342Z,59.89
2022-08-01T19:41:56.024Z,60.89
2022-08-01T19:44:25.689Z,60.85
2022-08-01T19:46:53.561Z,60.77
2022-08-01T19:49:22.926Z,60.99
2022-08-01T19:51:52.667Z,61.16
2022-08-01T19:54:21.435Z,60.95
2022-08-01T19:56:51.153Z,60.90
2022-08-01T19:59:23.832Z,61.70
2022-08-01T20:01:55.630Z,62.04
2022-08-01T20:04:24.609Z,60.13
2022-08-01T20:06:52.776Z,60.42
2022-08-01T20:09:20.406Z,60.53
2022-08-01T20:11:52.744Z,63.35
2022-08-01T20:14:22.886Z,62.24
2022-08-01T20:16:52.911Z,62.27
2022-08-01T20:19:22.161Z,61.60
2022-08-01T20:22:02.712Z,61.50
2022-08-01T20:24:41.976Z,62.47
2022-08-01T20:27:12.448Z,61.75
2022-08-01T20:29:41.197Z,61.44
2022-08-01T20:32:09.948Z,62.19
2022-08-01T20:34:39.244Z,63.15
2022-08-01T20:37:13.051Z,62.47
2022-08-01T20:39:43.973Z,63.12
2022-08-01T20:42:14.351Z,63.33
2022-08-01T20:44:42.967Z,63.87
2022-08-01T20:47:10.781Z,63.77
2022-08-01T20:49:38.546Z,63.81
2022-08-01T20:52:12.022Z,63.57
2022-08-01T20:54:43.392Z,64.24
2022-08-01T20:57:26.776Z,63.10
2022-08-01T21:00:05.898Z,64.57
2022-08-01T21:02:51.688Z,63.22
2022-08-01T21:05:31.083Z,66.25
2022-08-01T21:08:13.005Z,63.81
2022-08-01T21:10:46.317Z,66.09
2022-08-01T21:13:24.853Z,66.77
2022-08-01T21:16:22.654Z,65.79
2022-08-01T21:19:19.189Z,67.76
2022-08-01T21:22:31.030Z,64.65
2022-08-01T21:25:07.421Z,67.51
2022-08-01T21:27:36.412Z,65.77
2022-08-01T21:30:07.267Z,66.05
2022-08-01T21:32:36.516Z,65.25
2022-08-01T21:35:15.718Z,66.33
2022-08-01T21:37:51.949Z,64.97
2022-08-01T21:40:22.414Z,65.74
2022-08-01T21:42:51.809Z,65.35
2022-08-01T21:45:23.280Z,65.70
2022-08-01T21:47:51.655Z,65.35
2022-08-01T21:50:19.552Z,64.93
2022-08-01T21:53:04.967Z,67.42
2022-08-01T21:55:53.545Z,69.42
2022-08-01T21:58:38.624Z,68.70
2022-08-01T22:01:23.453Z,69.09
2022-08-01T22:03:56.322Z,67.07
2022-08-01T22:06:25.218Z,65.56
2022-08-01T22:08:54.756Z,65.61
2022-08-01T22:11:25.484Z,65.88
2022-08-01T22:13:57.926Z,65.87
2022-08-01T22:16:26.764Z,66.10
2022-08-01T22:18:54.944Z,66.56
2022-08-01T22:21:22.744Z,66.86
2022-08-01T22:23:53.778Z,68.56
2022-08-01T22:26:29.015Z,69.05
2022-08-01T22:28:57.095Z,67.28
2022-08-01T22:31:24.569Z,67.43
2022-08-01T22:33:52.311Z,68.09
2022-08-01T22:36:20.918Z,69.35
2022-08-01T22:38:48.783Z,69.41
2022-08-01T22:41:18.649Z,71.11
2022-08-01T22:44:01.576Z,74.29
2022-08-01T22:46:31.898Z,69.45
2022-08-01T22:49:09.415Z,71.10
2022-08-01T22:51:55.729Z,70.88
2022-08-01T22:54:41.150Z,68.25
2022-08-01T22:57:36.374Z,69.65
2022-08-01T23:00:10.418Z,69.76
2022-08-01T23:02:44.174Z,69.83
2022-08-01T23:05:20.043Z,69.15
2022-08-01T23:07:53.705Z,69.00
2022-08-01T23:10:22.957Z,67.10
2022-08-01T23:12:55.018Z,68.97
2022-08-01T23:15:24.174Z,67.53
2022-08-01T23:17:52.380Z,67.04
2022-08-01T23:20:19.917Z,65.81
2022-08-01T23:22:48.217Z,66.99
2022-08-01T23:25:17.063Z,67.42
2022-08-01T23:27:55.706Z,68.11
2022-08-01T23:30:34.957Z,67.85
2022-08-01T23:33:02.690Z,67.56
2022-08-01T23:35:31.170Z,67.43
2022-08-01T23:38:02.944Z,67.00
2022-08-01T23:40:32.733Z,68.66
2022-08-01T23:43:01.983Z,68.65
2022-08-01T23:46:01.741Z,68.12
2022-08-01T23:48:17.910Z,68.51
2022-08-01T23:50:45.480Z,68.87
2022-08-01T23:53:13.342Z,68.68
2022-08-01T23:59:02.028Z,67.69
